sensor_id;sensor_type;location;lat;lon;timestamp;pressure;altitude;pressure_sealevel;temperature;humidity
64025;BME280;50266;57.446;26.936;2023-02-01T00:00:21;97494.59;;;-1.67;100.0
64025;BME280;50266;57.446;26.936;2023-02-01T00:01:21;97494.73;;;-1.69;100.0
64025;BME280;50266;57.446;26.936;2023-02-01T00:02:21;97487.05;;;-1.68;100.0
64025;BME280;50266;57.446;26.936;2023-02-01T00:03:21;97486.02;;;-1.66;100.0
64025;BME280;50266;57.446;26.936;2023-02-01T00:04:21;97484.19;;;-1.68;100.0
64025;BME280;50266;57.446;26.936;2023-02-01T00:05:21;97480.84;;;-1.65;100.0
64025;BME280;50266;57.446;26.936;2023-02-01T00:06:21;97480.09;;;-1.65;100.0
64025;BME280;50266;57.446;26.936;2023-02-01T00:07:21;97478.95;;;-1.65;100.0
64025;BME280;50266;57.446;26.936;2023-02-01T00:08:21;97480.59;;;-1.67;100.0
64025;BME280;50266;57.446;26.936;2023-02-01T00:09:21;97480.59;;;-1.66;100.0
64025;BME280;50266;57.446;26.936;2023-02-01T00:10:21;97480.36;;;-1.65;100.0
64025;BME280;50266;57.446;26.936;2023-02-01T00:11:21;97476.31;;;-1.64;100.0
64025;BME280;50266;57.446;26.936;2023-02-01T00:12:21;97472.85;;;-1.62;100.0
64025;BME280;50266;57.446;26.936;2023-02-01T00:13:21;97475.54;;;-1.66;100.0
64025;BME280;50266;57.446;26.936;2023-02-01T00:14:21;97477.88;;;-1.64;100.0
64025;BME280;50266;57.446;26.936;2023-02-01T00:15:21;97479.14;;;-1.63;100.0
64025;BME280;50266;57.446;26.936;2023-02-01T00:16:22;97473.97;;;-1.64;100.0
64025;BME280;50266;57.446;26.936;2023-02-01T00:17:21;97472.95;;;-1.63;100.0
64025;BME280;50266;57.446;26.936;2023-02-01T00:18:21;97477.12;;;-1.63;100.0
64025;BME280;50266;57.446;26.936;2023-02-01T00:19:21;97470.27;;;-1.62;100.0
64025;BME280;50266;57.446;26.936;2023-02-01T00:20:21;97468.72;;;-1.63;100.0
64025;BME280;50266;57.446;26.936;2023-02-01T00:21:21;97465.81;;;-1.62;100.0
64025;BME280;50266;57.446;26.936;2023-02-01T00:22:21;97463.26;;;-1.64;100.0
64025;BME280;50266;57.446;26.936;2023-02-01T00:23:21;97460.55;;;-1.64;100.0
64025;BME280;50266;57.446;26.936;2023-02-01T00:24:21;97457.96;;;-1.61;100.0
64025;BME280;50266;57.446;26.936;2023-02-01T00:25:21;97460.03;;;-1.59;100.0
64025;BME280;50266;57.446;26.936;2023-02-01T00:26:26;97456.72;;;-1.6;100.0
64025;BME280;50266;57.446;26.936;2023-02-01T00:27:24;97453.16;;;-1.62;100.0
64025;BME280;50266;57.446;26.936;2023-02-01T00:28:24;97448.16;;;-1.61;100.0
64025;BME280;50266;57.446;26.936;2023-02-01T00:29:24;97450.1;;;-1.59;100.0
64025;BME280;50266;57.446;26.936;2023-02-01T00:30:24;97452.57;;;-1.58;100.0
64025;BME280;50266;57.446;26.936;2023-02-01T00:31:24;97450.89;;;-1.61;100.0
64025;BME280;50266;57.446;26.936;2023-02-01T00:32:24;97447.01;;;-1.63;100.0
64025;BME280;50266;57.446;26.936;2023-02-01T00:33:25;97448.69;;;-1.61;100.0
64025;BME280;50266;57.446;26.936;2023-02-01T00:34:24;97444.71;;;-1.61;100.0
64025;BME280;50266;57.446;26.936;2023-02-01T00:35:25;97449.48;;;-1.6;100.0
64025;BME280;50266;57.446;26.936;2023-02-01T00:36:25;97444.13;;;-1.62;100.0
64025;BME280;50266;57.446;26.936;2023-02-01T00:37:25;97441.88;;;-1.6;100.0
64025;BME280;50266;57.446;26.936;2023-02-01T00:38:25;97439.98;;;-1.61;100.0
64025;BME280;50266;57.446;26.936;2023-02-01T00:39:25;97444.38;;;-1.59;100.0
64025;BME280;50266;57.446;26.936;2023-02-01T00:40:25;97440.98;;;-1.62;100.0
64025;BME280;50266;57.446;26.936;2023-02-01T00:41:25;97447.27;;;-1.59;100.0
64025;BME280;50266;57.446;26.936;2023-02-01T00:42:25;97438.73;;;-1.58;100.0
64025;BME280;50266;57.446;26.936;2023-02-01T00:43:25;97444.47;;;-1.58;100.0
64025;BME280;50266;57.446;26.936;2023-02-01T00:44:25;97438.09;;;-1.55;100.0
64025;BME280;50266;57.446;26.936;2023-02-01T00:45:25;97440.89;;;-1.59;100.0
64025;BME280;50266;57.446;26.936;2023-02-01T00:46:25;97440.78;;;-1.57;100.0
64025;BME280;50266;57.446;26.936;2023-02-01T00:47:25;97439.25;;;-1.58;100.0
64025;BME280;50266;57.446;26.936;2023-02-01T00:48:25;97436.74;;;-1.62;100.0
64025;BME280;50266;57.446;26.936;2023-02-01T00:49:25;97439.75;;;-1.59;100.0
64025;BME280;50266;57.446;26.936;2023-02-01T00:50:25;97435.48;;;-1.6;100.0
64025;BME280;50266;57.446;26.936;2023-02-01T00:51:26;97433.16;;;-1.61;100.0
64025;BME280;50266;57.446;26.936;2023-02-01T00:52:25;97431.83;;;-1.58;100.0
64025;BME280;50266;57.446;26.936;2023-02-01T00:53:25;97430.74;;;-1.56;100.0
64025;BME280;50266;57.446;26.936;2023-02-01T00:54:25;97430.98;;;-1.57;100.0
64025;BME280;50266;57.446;26.936;2023-02-01T00:55:25;97424.92;;;-1.57;100.0
64025;BME280;50266;57.446;26.936;2023-02-01T00:56:25;97424.53;;;-1.58;100.0
64025;BME280;50266;57.446;26.936;2023-02-01T00:57:25;97421.11;;;-1.56;100.0
64025;BME280;50266;57.446;26.936;2023-02-01T00:58:25;97418.52;;;-1.53;100.0
64025;BME280;50266;57.446;26.936;2023-02-01T00:59:25;97422.59;;;-1.54;100.0
64025;BME280;50266;57.446;26.936;2023-02-01T01:00:25;97417.11;;;-1.53;100.0
64025;BME280;50266;57.446;26.936;2023-02-01T01:01:26;97417.09;;;-1.55;100.0
64025;BME280;50266;57.446;26.936;2023-02-01T01:02:25;97420.5;;;-1.58;100.0
64025;BME280;50266;57.446;26.936;2023-02-01T01:03:25;97411.99;;;-1.61;100.0
64025;BME280;50266;57.446;26.936;2023-02-01T01:04:25;97415.44;;;-1.56;100.0
64025;BME280;50266;57.446;26.936;2023-02-01T01:05:25;97409.81;;;-1.53;100.0
64025;BME280;50266;57.446;26.936;2023-02-01T01:06:29;97414.09;;;-1.54;100.0
64025;BME280;50266;57.446;26.936;2023-02-01T01:07:27;97415.23;;;-1.54;100.0
64025;BME280;50266;57.446;26.936;2023-02-01T01:08:26;97414.49;;;-1.55;100.0
64025;BME280;50266;57.446;26.936;2023-02-01T01:09:26;97420.59;;;-1.57;100.0
64025;BME280;50266;57.446;26.936;2023-02-01T01:10:26;97418.28;;;-1.57;100.0
64025;BME280;50266;57.446;26.936;2023-02-01T01:11:27;97414.58;;;-1.58;100.0
64025;BME280;50266;57.446;26.936;2023-02-01T01:12:26;97410.62;;;-1.56;100.0
64025;BME280;50266;57.446;26.936;2023-02-01T01:13:26;97404.75;;;-1.58;100.0
64025;BME280;50266;57.446;26.936;2023-02-01T01:14:26;97399.85;;;-1.57;100.0
64025;BME280;50266;57.446;26.936;2023-02-01T01:15:26;97397.05;;;-1.57;100.0
64025;BME280;50266;57.446;26.936;2023-02-01T01:16:27;97395.89;;;-1.59;100.0
64025;BME280;50266;57.446;26.936;2023-02-01T01:17:26;97397.88;;;-1.58;100.0
64025;BME280;50266;57.446;26.936;2023-02-01T01:18:26;97389.51;;;-1.62;100.0
64025;BME280;50266;57.446;26.936;2023-02-01T01:19:26;97396.8;;;-1.59;100.0
64025;BME280;50266;57.446;26.936;2023-02-01T01:20:26;97393.95;;;-1.6;100.0
64025;BME280;50266;57.446;26.936;2023-02-01T01:21:26;97392.62;;;-1.61;100.0
64025;BME280;50266;57.446;26.936;2023-02-01T01:22:26;97392.58;;;-1.63;100.0
64025;BME280;50266;57.446;26.936;2023-02-01T01:23:27;97390.1;;;-1.63;100.0
64025;BME280;50266;57.446;26.936;2023-02-01T01:24:26;97392.63;;;-1.67;100.0
64025;BME280;50266;57.446;26.936;2023-02-01T01:25:26;97390.94;;;-1.66;100.0
64025;BME280;50266;57.446;26.936;2023-02-01T01:26:27;97397.83;;;-1.65;100.0
64025;BME280;50266;57.446;26.936;2023-02-01T01:27:26;97393.2;;;-1.68;100.0
64025;BME280;50266;57.446;26.936;2023-02-01T01:28:26;97395.5;;;-1.66;100.0
64025;BME280;50266;57.446;26.936;2023-02-01T01:29:26;97397.41;;;-1.66;100.0
64025;BME280;50266;57.446;26.936;2023-02-01T01:30:26;97396.27;;;-1.65;100.0
64025;BME280;50266;57.446;26.936;2023-02-01T01:31:26;97398.85;;;-1.66;100.0
64025;BME280;50266;57.446;26.936;2023-02-01T01:32:26;97396.12;;;-1.62;100.0
64025;BME280;50266;57.446;26.936;2023-02-01T01:33:26;97392.11;;;-1.66;100.0
64025;BME280;50266;57.446;26.936;2023-02-01T01:34:26;97392.04;;;-1.65;100.0
64025;BME280;50266;57.446;26.936;2023-02-01T01:35:28;97390.58;;;-1.66;100.0
64025;BME280;50266;57.446;26.936;2023-02-01T01:36:27;97388.86;;;-1.67;100.0
64025;BME280;50266;57.446;26.936;2023-02-01T01:37:27;97388.56;;;-1.67;100.0
64025;BME280;50266;57.446;26.936;2023-02-01T01:38:27;97390.89;;;-1.64;100.0
64025;BME280;50266;57.446;26.936;2023-02-01T01:39:27;97387.84;;;-1.66;100.0
64025;BME280;50266;57.446;26.936;2023-02-01T01:40:27;97383.05;;;-1.68;100.0
64025;BME280;50266;57.446;26.936;2023-02-01T01:41:31;97381.77;;;-1.7;100.0
64025;BME280;50266;57.446;26.936;2023-02-01T01:42:28;97377.55;;;-1.69;100.0
64025;BME280;50266;57.446;26.936;2023-02-01T01:43:44;97381.59;;;-1.69;100.0
64025;BME280;50266;57.446;26.936;2023-02-01T01:45:37;97377.06;;;-1.69;100.0
64025;BME280;50266;57.446;26.936;2023-02-01T01:46:37;97374.27;;;-1.7;100.0
64025;BME280;50266;57.446;26.936;2023-02-01T01:47:37;97375.97;;;-1.71;100.0
64025;BME280;50266;57.446;26.936;2023-02-01T01:48:37;97375.09;;;-1.7;100.0
64025;BME280;50266;57.446;26.936;2023-02-01T01:49:37;97375.92;;;-1.69;100.0
64025;BME280;50266;57.446;26.936;2023-02-01T01:50:47;97374.25;;;-1.71;100.0
64025;BME280;50266;57.446;26.936;2023-02-01T01:51:40;97381.66;;;-1.71;100.0
64025;BME280;50266;57.446;26.936;2023-02-01T01:52:40;97378.89;;;-1.69;100.0
64025;BME280;50266;57.446;26.936;2023-02-01T01:53:42;97381.59;;;-1.71;100.0
64025;BME280;50266;57.446;26.936;2023-02-01T01:54:41;97380.48;;;-1.74;100.0
64025;BME280;50266;57.446;26.936;2023-02-01T01:55:41;97379.59;;;-1.71;100.0
64025;BME280;50266;57.446;26.936;2023-02-01T01:56:40;97382.13;;;-1.72;100.0
64025;BME280;50266;57.446;26.936;2023-02-01T01:57:42;97376.31;;;-1.73;100.0
64025;BME280;50266;57.446;26.936;2023-02-01T01:58:40;97379.93;;;-1.74;100.0
64025;BME280;50266;57.446;26.936;2023-02-01T01:59:41;97379.89;;;-1.73;100.0
64025;BME280;50266;57.446;26.936;2023-02-01T02:00:40;97378.38;;;-1.71;100.0
64025;BME280;50266;57.446;26.936;2023-02-01T02:01:40;97378.45;;;-1.77;100.0
64025;BME280;50266;57.446;26.936;2023-02-01T02:02:41;97376.62;;;-1.72;100.0
64025;BME280;50266;57.446;26.936;2023-02-01T02:03:42;97364.26;;;-1.72;100.0
64025;BME280;50266;57.446;26.936;2023-02-01T02:04:40;97366.31;;;-1.72;100.0
64025;BME280;50266;57.446;26.936;2023-02-01T02:05:41;97368.66;;;-1.73;100.0
64025;BME280;50266;57.446;26.936;2023-02-01T02:07:46;97361.41;;;-1.74;100.0
64025;BME280;50266;57.446;26.936;2023-02-01T02:08:45;97358.3;;;-1.75;100.0
64025;BME280;50266;57.446;26.936;2023-02-01T02:09:45;97356.98;;;-1.77;100.0
64025;BME280;50266;57.446;26.936;2023-02-01T02:10:47;97353.61;;;-1.79;100.0
64025;BME280;50266;57.446;26.936;2023-02-01T02:11:46;97357.56;;;-1.72;100.0
64025;BME280;50266;57.446;26.936;2023-02-01T02:12:46;97354.88;;;-1.71;100.0
64025;BME280;50266;57.446;26.936;2023-02-01T02:13:48;97358.0;;;-1.7;100.0
64025;BME280;50266;57.446;26.936;2023-02-01T02:14:46;97360.69;;;-1.73;100.0
64025;BME280;50266;57.446;26.936;2023-02-01T02:17:03;97360.69;;;-1.73;100.0
64025;BME280;50266;57.446;26.936;2023-02-01T02:19:04;97361.3;;;-1.68;100.0
64025;BME280;50266;57.446;26.936;2023-02-01T02:25:23;97357.42;;;-1.68;100.0
64025;BME280;50266;57.446;26.936;2023-02-01T02:28:46;97352.87;;;-1.6;100.0
64025;BME280;50266;57.446;26.936;2023-02-01T02:31:46;97351.34;;;-1.61;100.0
64025;BME280;50266;57.446;26.936;2023-02-01T02:32:45;97346.84;;;-1.64;100.0
64025;BME280;50266;57.446;26.936;2023-02-01T02:35:59;97349.22;;;-1.64;100.0
64025;BME280;50266;57.446;26.936;2023-02-01T02:37:50;97340.23;;;-1.63;100.0
64025;BME280;50266;57.446;26.936;2023-02-01T02:38:47;97342.84;;;-1.6;100.0
64025;BME280;50266;57.446;26.936;2023-02-01T02:40:00;97342.01;;;-1.62;100.0
64025;BME280;50266;57.446;26.936;2023-02-01T02:40:53;97342.93;;;-1.63;100.0
64025;BME280;50266;57.446;26.936;2023-02-01T02:42:01;97338.88;;;-1.61;100.0
64025;BME280;50266;57.446;26.936;2023-02-01T02:43:04;97345.7;;;-1.6;100.0
64025;BME280;50266;57.446;26.936;2023-02-01T02:43:57;97340.45;;;-1.58;100.0
64025;BME280;50266;57.446;26.936;2023-02-01T02:45:02;97342.79;;;-1.58;100.0
64025;BME280;50266;57.446;26.936;2023-02-01T02:46:02;97338.83;;;-1.56;100.0
64025;BME280;50266;57.446;26.936;2023-02-01T02:47:02;97336.41;;;-1.62;100.0
64025;BME280;50266;57.446;26.936;2023-02-01T02:48:13;97336.67;;;-1.59;100.0
64025;BME280;50266;57.446;26.936;2023-02-01T02:49:15;97337.04;;;-1.59;100.0
64025;BME280;50266;57.446;26.936;2023-02-01T02:50:17;97341.68;;;-1.58;100.0
64025;BME280;50266;57.446;26.936;2023-02-01T02:51:07;97341.8;;;-1.6;100.0
64025;BME280;50266;57.446;26.936;2023-02-01T02:52:11;97340.24;;;-1.57;100.0
64025;BME280;50266;57.446;26.936;2023-02-01T02:53:14;97338.66;;;-1.58;100.0
64025;BME280;50266;57.446;26.936;2023-02-01T02:54:13;97337.81;;;-1.55;100.0
64025;BME280;50266;57.446;26.936;2023-02-01T02:55:11;97336.83;;;-1.57;100.0
64025;BME280;50266;57.446;26.936;2023-02-01T02:56:11;97337.16;;;-1.58;100.0
64025;BME280;50266;57.446;26.936;2023-02-01T02:58:13;97327.68;;;-1.58;100.0
64025;BME280;50266;57.446;26.936;2023-02-01T02:59:14;97326.67;;;-1.58;100.0
64025;BME280;50266;57.446;26.936;2023-02-01T03:00:17;97328.95;;;-1.51;100.0
64025;BME280;50266;57.446;26.936;2023-02-01T03:01:14;97327.58;;;-1.5;100.0
64025;BME280;50266;57.446;26.936;2023-02-01T03:02:14;97325.95;;;-1.57;100.0
64025;BME280;50266;57.446;26.936;2023-02-01T03:03:14;97323.18;;;-1.53;100.0
64025;BME280;50266;57.446;26.936;2023-02-01T03:04:14;97321.96;;;-1.55;100.0
64025;BME280;50266;57.446;26.936;2023-02-01T03:05:14;97324.81;;;-1.53;100.0
64025;BME280;50266;57.446;26.936;2023-02-01T03:06:15;97325.02;;;-1.51;100.0
64025;BME280;50266;57.446;26.936;2023-02-01T03:08:16;97318.48;;;-1.52;100.0
64025;BME280;50266;57.446;26.936;2023-02-01T03:09:19;97318.59;;;-1.53;100.0
64025;BME280;50266;57.446;26.936;2023-02-01T03:10:18;97317.67;;;-1.53;100.0
64025;BME280;50266;57.446;26.936;2023-02-01T03:11:20;97317.89;;;-1.49;100.0
64025;BME280;50266;57.446;26.936;2023-02-01T03:12:20;97314.87;;;-1.52;100.0
64025;BME280;50266;57.446;26.936;2023-02-01T03:13:24;97314.98;;;-1.54;100.0
64025;BME280;50266;57.446;26.936;2023-02-01T03:14:22;97314.31;;;-1.52;100.0
64025;BME280;50266;57.446;26.936;2023-02-01T03:15:33;97311.84;;;-1.57;100.0
64025;BME280;50266;57.446;26.936;2023-02-01T03:16:33;97305.22;;;-1.54;100.0
64025;BME280;50266;57.446;26.936;2023-02-01T03:17:30;97310.16;;;-1.49;100.0
64025;BME280;50266;57.446;26.936;2023-02-01T03:19:34;97306.78;;;-1.51;100.0
64025;BME280;50266;57.446;26.936;2023-02-01T03:20:33;97307.72;;;-1.47;100.0
64025;BME280;50266;57.446;26.936;2023-02-01T03:22:38;97309.3;;;-1.48;100.0
64025;BME280;50266;57.446;26.936;2023-02-01T03:23:38;97303.3;;;-1.48;100.0
64025;BME280;50266;57.446;26.936;2023-02-01T03:24:41;97302.91;;;-1.5;100.0
64025;BME280;50266;57.446;26.936;2023-02-01T03:25:40;97301.51;;;-1.48;100.0
64025;BME280;50266;57.446;26.936;2023-02-01T03:26:41;97301.34;;;-1.48;100.0
64025;BME280;50266;57.446;26.936;2023-02-01T03:27:47;97301.12;;;-1.42;100.0
64025;BME280;50266;57.446;26.936;2023-02-01T03:28:47;97299.67;;;-1.5;100.0
64025;BME280;50266;57.446;26.936;2023-02-01T03:29:51;97305.52;;;-1.48;100.0
64025;BME280;50266;57.446;26.936;2023-02-01T03:30:51;97304.18;;;-1.48;100.0
64025;BME280;50266;57.446;26.936;2023-02-01T03:31:51;97307.95;;;-1.48;100.0
64025;BME280;50266;57.446;26.936;2023-02-01T03:32:51;97302.94;;;-1.47;100.0
64025;BME280;50266;57.446;26.936;2023-02-01T03:33:51;97306.39;;;-1.48;100.0
64025;BME280;50266;57.446;26.936;2023-02-01T03:34:51;97305.05;;;-1.44;100.0
64025;BME280;50266;57.446;26.936;2023-02-01T03:36:12;97304.4;;;-1.47;100.0
64025;BME280;50266;57.446;26.936;2023-02-01T03:37:02;97300.66;;;-1.44;100.0
64025;BME280;50266;57.446;26.936;2023-02-01T03:40:08;97300.34;;;-1.45;100.0
64025;BME280;50266;57.446;26.936;2023-02-01T03:41:11;97305.3;;;-1.43;100.0
64025;BME280;50266;57.446;26.936;2023-02-01T03:42:12;97299.45;;;-1.47;100.0
64025;BME280;50266;57.446;26.936;2023-02-01T03:43:10;97302.36;;;-1.42;100.0
64025;BME280;50266;57.446;26.936;2023-02-01T03:44:23;97301.31;;;-1.42;100.0
64025;BME280;50266;57.446;26.936;2023-02-01T03:45:13;97301.01;;;-1.4;100.0
64025;BME280;50266;57.446;26.936;2023-02-01T03:46:12;97302.04;;;-1.39;100.0
64025;BME280;50266;57.446;26.936;2023-02-01T03:47:15;97303.88;;;-1.37;100.0
64025;BME280;50266;57.446;26.936;2023-02-01T03:48:14;97301.61;;;-1.38;100.0
64025;BME280;50266;57.446;26.936;2023-02-01T03:49:16;97296.48;;;-1.4;100.0
64025;BME280;50266;57.446;26.936;2023-02-01T03:50:16;97299.66;;;-1.42;100.0
64025;BME280;50266;57.446;26.936;2023-02-01T03:51:15;97298.08;;;-1.43;100.0
64025;BME280;50266;57.446;26.936;2023-02-01T03:52:17;97293.67;;;-1.43;100.0
64025;BME280;50266;57.446;26.936;2023-02-01T03:53:16;97291.52;;;-1.45;100.0
64025;BME280;50266;57.446;26.936;2023-02-01T03:54:15;97289.78;;;-1.41;100.0
64025;BME280;50266;57.446;26.936;2023-02-01T03:55:15;97285.27;;;-1.39;100.0
64025;BME280;50266;57.446;26.936;2023-02-01T03:56:15;97285.96;;;-1.4;100.0
64025;BME280;50266;57.446;26.936;2023-02-01T03:57:16;97287.94;;;-1.39;100.0
64025;BME280;50266;57.446;26.936;2023-02-01T03:58:16;97282.39;;;-1.41;100.0
64025;BME280;50266;57.446;26.936;2023-02-01T03:59:15;97283.14;;;-1.41;100.0
64025;BME280;50266;57.446;26.936;2023-02-01T04:00:19;97283.38;;;-1.39;100.0
64025;BME280;50266;57.446;26.936;2023-02-01T04:01:17;97276.92;;;-1.38;100.0
64025;BME280;50266;57.446;26.936;2023-02-01T04:02:17;97282.73;;;-1.36;100.0
64025;BME280;50266;57.446;26.936;2023-02-01T04:03:17;97278.1;;;-1.42;100.0
64025;BME280;50266;57.446;26.936;2023-02-01T04:04:17;97276.31;;;-1.42;100.0
64025;BME280;50266;57.446;26.936;2023-02-01T04:05:17;97276.03;;;-1.4;100.0
64025;BME280;50266;57.446;26.936;2023-02-01T04:06:17;97271.7;;;-1.37;100.0
64025;BME280;50266;57.446;26.936;2023-02-01T04:07:18;97276.62;;;-1.41;100.0
64025;BME280;50266;57.446;26.936;2023-02-01T04:08:18;97276.66;;;-1.39;100.0
64025;BME280;50266;57.446;26.936;2023-02-01T04:09:17;97277.09;;;-1.36;100.0
64025;BME280;50266;57.446;26.936;2023-02-01T04:10:17;97281.28;;;-1.37;100.0
64025;BME280;50266;57.446;26.936;2023-02-01T04:11:17;97279.52;;;-1.37;100.0
64025;BME280;50266;57.446;26.936;2023-02-01T04:12:17;97281.3;;;-1.37;100.0
64025;BME280;50266;57.446;26.936;2023-02-01T04:13:17;97280.69;;;-1.36;100.0
64025;BME280;50266;57.446;26.936;2023-02-01T04:14:17;97279.08;;;-1.36;100.0
64025;BME280;50266;57.446;26.936;2023-02-01T04:15:17;97280.4;;;-1.34;100.0
64025;BME280;50266;57.446;26.936;2023-02-01T04:16:17;97278.73;;;-1.35;100.0
64025;BME280;50266;57.446;26.936;2023-02-01T04:17:17;97281.16;;;-1.32;100.0
64025;BME280;50266;57.446;26.936;2023-02-01T04:18:17;97280.17;;;-1.31;100.0
64025;BME280;50266;57.446;26.936;2023-02-01T04:19:17;97284.7;;;-1.28;100.0
64025;BME280;50266;57.446;26.936;2023-02-01T04:20:17;97278.39;;;-1.32;100.0
64025;BME280;50266;57.446;26.936;2023-02-01T04:21:17;97282.89;;;-1.33;100.0
64025;BME280;50266;57.446;26.936;2023-02-01T04:22:17;97279.05;;;-1.33;100.0
64025;BME280;50266;57.446;26.936;2023-02-01T04:23:17;97279.62;;;-1.32;100.0
64025;BME280;50266;57.446;26.936;2023-02-01T04:24:17;97279.14;;;-1.32;100.0
64025;BME280;50266;57.446;26.936;2023-02-01T04:25:17;97274.25;;;-1.32;100.0
64025;BME280;50266;57.446;26.936;2023-02-01T04:26:17;97274.27;;;-1.3;100.0
64025;BME280;50266;57.446;26.936;2023-02-01T04:27:17;97274.73;;;-1.29;100.0
64025;BME280;50266;57.446;26.936;2023-02-01T04:28:17;97275.98;;;-1.27;100.0
64025;BME280;50266;57.446;26.936;2023-02-01T04:29:17;97275.52;;;-1.26;100.0
64025;BME280;50266;57.446;26.936;2023-02-01T04:30:17;97268.16;;;-1.29;100.0
64025;BME280;50266;57.446;26.936;2023-02-01T04:31:17;97273.5;;;-1.29;100.0
64025;BME280;50266;57.446;26.936;2023-02-01T04:32:17;97273.27;;;-1.26;100.0
64025;BME280;50266;57.446;26.936;2023-02-01T04:33:17;97272.43;;;-1.26;100.0
64025;BME280;50266;57.446;26.936;2023-02-01T04:34:17;97278.47;;;-1.28;100.0
64025;BME280;50266;57.446;26.936;2023-02-01T04:35:17;97273.66;;;-1.28;100.0
64025;BME280;50266;57.446;26.936;2023-02-01T04:36:17;97272.81;;;-1.28;100.0
64025;BME280;50266;57.446;26.936;2023-02-01T04:37:17;97272.8;;;-1.24;100.0
64025;BME280;50266;57.446;26.936;2023-02-01T04:38:17;97269.02;;;-1.31;100.0
64025;BME280;50266;57.446;26.936;2023-02-01T04:39:17;97272.41;;;-1.27;100.0
64025;BME280;50266;57.446;26.936;2023-02-01T04:40:17;97261.83;;;-1.28;100.0
64025;BME280;50266;57.446;26.936;2023-02-01T04:41:18;97269.38;;;-1.27;100.0
64025;BME280;50266;57.446;26.936;2023-02-01T04:42:22;97268.91;;;-1.27;100.0
64025;BME280;50266;57.446;26.936;2023-02-01T04:43:19;97270.46;;;-1.25;100.0
64025;BME280;50266;57.446;26.936;2023-02-01T04:44:19;97273.52;;;-1.27;100.0
64025;BME280;50266;57.446;26.936;2023-02-01T04:45:19;97271.73;;;-1.29;100.0
64025;BME280;50266;57.446;26.936;2023-02-01T04:46:19;97274.81;;;-1.27;100.0
64025;BME280;50266;57.446;26.936;2023-02-01T04:47:19;97274.84;;;-1.23;100.0
64025;BME280;50266;57.446;26.936;2023-02-01T04:48:19;97271.73;;;-1.22;100.0
64025;BME280;50266;57.446;26.936;2023-02-01T04:49:19;97271.54;;;-1.23;100.0
64025;BME280;50266;57.446;26.936;2023-02-01T04:50:19;97275.17;;;-1.24;100.0
64025;BME280;50266;57.446;26.936;2023-02-01T04:51:19;97273.22;;;-1.24;100.0
64025;BME280;50266;57.446;26.936;2023-02-01T04:52:19;97271.75;;;-1.27;100.0
64025;BME280;50266;57.446;26.936;2023-02-01T04:53:19;97269.77;;;-1.27;100.0
64025;BME280;50266;57.446;26.936;2023-02-01T04:54:19;97269.27;;;-1.26;100.0
64025;BME280;50266;57.446;26.936;2023-02-01T04:55:19;97270.88;;;-1.25;100.0
64025;BME280;50266;57.446;26.936;2023-02-01T04:56:19;97269.07;;;-1.23;100.0
64025;BME280;50266;57.446;26.936;2023-02-01T04:57:19;97270.64;;;-1.21;100.0
64025;BME280;50266;57.446;26.936;2023-02-01T04:58:19;97271.48;;;-1.24;100.0
64025;BME280;50266;57.446;26.936;2023-02-01T04:59:19;97272.81;;;-1.23;100.0
64025;BME280;50266;57.446;26.936;2023-02-01T05:00:19;97270.61;;;-1.23;100.0
64025;BME280;50266;57.446;26.936;2023-02-01T05:01:19;97274.7;;;-1.25;100.0
64025;BME280;50266;57.446;26.936;2023-02-01T05:02:19;97271.4;;;-1.24;100.0
64025;BME280;50266;57.446;26.936;2023-02-01T05:03:19;97271.22;;;-1.26;100.0
64025;BME280;50266;57.446;26.936;2023-02-01T05:04:19;97276.34;;;-1.18;100.0
64025;BME280;50266;57.446;26.936;2023-02-01T05:05:19;97277.65;;;-1.21;100.0
64025;BME280;50266;57.446;26.936;2023-02-01T05:06:19;97275.99;;;-1.22;100.0
64025;BME280;50266;57.446;26.936;2023-02-01T05:07:19;97275.59;;;-1.21;100.0
64025;BME280;50266;57.446;26.936;2023-02-01T05:08:19;97280.28;;;-1.24;100.0
64025;BME280;50266;57.446;26.936;2023-02-01T05:09:19;97278.16;;;-1.2;100.0
64025;BME280;50266;57.446;26.936;2023-02-01T05:10:19;97283.19;;;-1.21;100.0
64025;BME280;50266;57.446;26.936;2023-02-01T05:11:19;97286.12;;;-1.18;100.0
64025;BME280;50266;57.446;26.936;2023-02-01T05:12:19;97284.5;;;-1.19;100.0
64025;BME280;50266;57.446;26.936;2023-02-01T05:13:19;97285.16;;;-1.19;100.0
64025;BME280;50266;57.446;26.936;2023-02-01T05:14:19;97284.24;;;-1.19;100.0
64025;BME280;50266;57.446;26.936;2023-02-01T05:15:19;97282.67;;;-1.22;100.0
64025;BME280;50266;57.446;26.936;2023-02-01T05:16:19;97284.08;;;-1.25;100.0
64025;BME280;50266;57.446;26.936;2023-02-01T05:17:19;97284.28;;;-1.23;100.0
64025;BME280;50266;57.446;26.936;2023-02-01T05:18:19;97277.22;;;-1.23;100.0
64025;BME280;50266;57.446;26.936;2023-02-01T05:19:19;97275.33;;;-1.23;100.0
64025;BME280;50266;57.446;26.936;2023-02-01T05:20:19;97280.0;;;-1.21;100.0
64025;BME280;50266;57.446;26.936;2023-02-01T05:21:19;97274.98;;;-1.22;100.0
64025;BME280;50266;57.446;26.936;2023-02-01T05:22:19;97275.77;;;-1.21;100.0
64025;BME280;50266;57.446;26.936;2023-02-01T05:23:19;97277.56;;;-1.23;100.0
64025;BME280;50266;57.446;26.936;2023-02-01T05:24:19;97278.06;;;-1.21;100.0
64025;BME280;50266;57.446;26.936;2023-02-01T05:25:19;97279.09;;;-1.22;100.0
64025;BME280;50266;57.446;26.936;2023-02-01T05:26:19;97281.68;;;-1.21;100.0
64025;BME280;50266;57.446;26.936;2023-02-01T05:27:19;97271.16;;;-1.24;100.0
64025;BME280;50266;57.446;26.936;2023-02-01T05:28:19;97275.45;;;-1.23;100.0
64025;BME280;50266;57.446;26.936;2023-02-01T05:29:19;97277.31;;;-1.23;100.0
64025;BME280;50266;57.446;26.936;2023-02-01T05:30:19;97272.45;;;-1.22;100.0
64025;BME280;50266;57.446;26.936;2023-02-01T05:31:19;97277.12;;;-1.23;100.0
64025;BME280;50266;57.446;26.936;2023-02-01T05:32:19;97279.45;;;-1.25;100.0
64025;BME280;50266;57.446;26.936;2023-02-01T05:33:20;97277.56;;;-1.25;100.0
64025;BME280;50266;57.446;26.936;2023-02-01T05:34:19;97276.15;;;-1.24;100.0
64025;BME280;50266;57.446;26.936;2023-02-01T05:35:19;97276.95;;;-1.23;100.0
64025;BME280;50266;57.446;26.936;2023-02-01T05:36:19;97275.69;;;-1.21;100.0
64025;BME280;50266;57.446;26.936;2023-02-01T05:37:19;97277.45;;;-1.22;100.0
64025;BME280;50266;57.446;26.936;2023-02-01T05:38:19;97277.81;;;-1.21;100.0
64025;BME280;50266;57.446;26.936;2023-02-01T05:39:19;97273.89;;;-1.2;100.0